sensor_id;sensor_type;location;lat;lon;timestamp;P1;durP1;ratioP1;P2;durP2;ratioP2
30307;SDS011;17114;52.314;8.910;2024-03-22T00:01:44;44.28;;;26.50;;
30307;SDS011;17114;52.314;8.910;2024-03-22T00:04:11;38.60;;;24.15;;
30307;SDS011;17114;52.314;8.910;2024-03-22T00:06:38;42.38;;;26.38;;
30307;SDS011;17114;52.314;8.910;2024-03-22T00:09:05;45.22;;;28.33;;
30307;SDS011;17114;52.314;8.910;2024-03-22T00:11:31;45.90;;;27.45;;
30307;SDS011;17114;52.314;8.910;2024-03-22T00:13:57;51.72;;;30.25;;
30307;SDS011;17114;52.314;8.910;2024-03-22T00:16:23;49.85;;;29.55;;
30307;SDS011;17114;52.314;8.910;2024-03-22T00:18:49;48.78;;;28.30;;
30307;SDS011;17114;52.314;8.910;2024-03-22T00:21:16;46.67;;;29.20;;
30307;SDS011;17114;52.314;8.910;2024-03-22T00:23:43;47.80;;;28.70;;
30307;SDS011;17114;52.314;8.910;2024-03-22T00:26:10;51.90;;;29.75;;
30307;SDS011;17114;52.314;8.910;2024-03-22T00:28:36;52.38;;;30.02;;
30307;SDS011;17114;52.314;8.910;2024-03-22T00:31:02;49.45;;;30.25;;
30307;SDS011;17114;52.314;8.910;2024-03-22T00:33:28;48.45;;;30.58;;
30307;SDS011;17114;52.314;8.910;2024-03-22T00:35:54;53.85;;;31.67;;
30307;SDS011;17114;52.314;8.910;2024-03-22T00:38:20;51.30;;;31.15;;
30307;SDS011;17114;52.314;8.910;2024-03-22T00:40:46;49.50;;;31.42;;
30307;SDS011;17114;52.314;8.910;2024-03-22T00:43:12;52.45;;;31.42;;
30307;SDS011;17114;52.314;8.910;2024-03-22T00:45:38;53.03;;;32.40;;
30307;SDS011;17114;52.314;8.910;2024-03-22T00:48:04;54.00;;;32.70;;
30307;SDS011;17114;52.314;8.910;2024-03-22T00:50:30;54.08;;;32.38;;
30307;SDS011;17114;52.314;8.910;2024-03-22T00:52:56;51.88;;;32.80;;
30307;SDS011;17114;52.314;8.910;2024-03-22T00:55:22;53.90;;;32.63;;
30307;SDS011;17114;52.314;8.910;2024-03-22T00:57:49;52.90;;;32.78;;
30307;SDS011;17114;52.314;8.910;2024-03-22T01:00:15;54.58;;;32.42;;
30307;SDS011;17114;52.314;8.910;2024-03-22T01:02:42;57.53;;;34.42;;
30307;SDS011;17114;52.314;8.910;2024-03-22T01:05:08;59.10;;;35.10;;
30307;SDS011;17114;52.314;8.910;2024-03-22T01:07:35;54.75;;;33.33;;
30307;SDS011;17114;52.314;8.910;2024-03-22T01:10:02;58.05;;;35.10;;
30307;SDS011;17114;52.314;8.910;2024-03-22T01:12:32;64.10;;;36.10;;
30307;SDS011;17114;52.314;8.910;2024-03-22T01:14:58;59.33;;;34.83;;
30307;SDS011;17114;52.314;8.910;2024-03-22T01:17:24;61.03;;;36.28;;
30307;SDS011;17114;52.314;8.910;2024-03-22T01:19:51;62.10;;;34.13;;
30307;SDS011;17114;52.314;8.910;2024-03-22T01:22:17;60.65;;;35.67;;
30307;SDS011;17114;52.314;8.910;2024-03-22T01:24:44;65.10;;;35.58;;
30307;SDS011;17114;52.314;8.910;2024-03-22T01:27:10;67.57;;;36.05;;
30307;SDS011;17114;52.314;8.910;2024-03-22T01:29:36;62.00;;;36.47;;
30307;SDS011;17114;52.314;8.910;2024-03-22T01:32:03;62.08;;;36.47;;
30307;SDS011;17114;52.314;8.910;2024-03-22T01:34:29;61.97;;;35.80;;
30307;SDS011;17114;52.314;8.910;2024-03-22T01:36:55;68.85;;;39.47;;
30307;SDS011;17114;52.314;8.910;2024-03-22T01:39:21;64.65;;;36.50;;
30307;SDS011;17114;52.314;8.910;2024-03-22T01:41:48;67.20;;;37.30;;
30307;SDS011;17114;52.314;8.910;2024-03-22T01:44:14;64.65;;;37.10;;
30307;SDS011;17114;52.314;8.910;2024-03-22T01:46:41;62.67;;;35.55;;
30307;SDS011;17114;52.314;8.910;2024-03-22T01:49:14;64.63;;;36.75;;
30307;SDS011;17114;52.314;8.910;2024-03-22T01:51:42;49.45;;;27.92;;
30307;SDS011;17114;52.314;8.910;2024-03-22T01:54:09;65.20;;;36.40;;
30307;SDS011;17114;52.314;8.910;2024-03-22T01:56:38;65.28;;;37.00;;
30307;SDS011;17114;52.314;8.910;2024-03-22T01:59:05;66.55;;;38.10;;
30307;SDS011;17114;52.314;8.910;2024-03-22T02:01:32;66.03;;;37.75;;
30307;SDS011;17114;52.314;8.910;2024-03-22T02:03:58;73.28;;;39.60;;
30307;SDS011;17114;52.314;8.910;2024-03-22T02:06:24;65.68;;;36.78;;
30307;SDS011;17114;52.314;8.910;2024-03-22T02:08:50;65.22;;;36.22;;
30307;SDS011;17114;52.314;8.910;2024-03-22T02:11:16;66.53;;;37.67;;
30307;SDS011;17114;52.314;8.910;2024-03-22T02:13:44;71.25;;;39.58;;
30307;SDS011;17114;52.314;8.910;2024-03-22T02:16:10;65.18;;;37.08;;
30307;SDS011;17114;52.314;8.910;2024-03-22T02:18:36;71.03;;;39.10;;
30307;SDS011;17114;52.314;8.910;2024-03-22T02:21:02;69.78;;;39.15;;
30307;SDS011;17114;52.314;8.910;2024-03-22T02:23:31;81.63;;;40.55;;
30307;SDS011;17114;52.314;8.910;2024-03-22T02:25:59;75.70;;;40.55;;
30307;SDS011;17114;52.314;8.910;2024-03-22T02:28:26;74.25;;;38.20;;
30307;SDS011;17114;52.314;8.910;2024-03-22T02:30:52;72.53;;;40.08;;
30307;SDS011;17114;52.314;8.910;2024-03-22T02:33:18;72.90;;;39.92;;
30307;SDS011;17114;52.314;8.910;2024-03-22T02:35:47;76.55;;;40.78;;
30307;SDS011;17114;52.314;8.910;2024-03-22T02:38:14;75.57;;;40.10;;
30307;SDS011;17114;52.314;8.910;2024-03-22T02:40:40;82.55;;;43.25;;
30307;SDS011;17114;52.314;8.910;2024-03-22T02:43:08;79.53;;;41.17;;
30307;SDS011;17114;52.314;8.910;2024-03-22T02:45:34;82.65;;;41.40;;
30307;SDS011;17114;52.314;8.910;2024-03-22T02:48:00;80.35;;;41.78;;
30307;SDS011;17114;52.314;8.910;2024-03-22T02:50:26;77.72;;;41.17;;
30307;SDS011;17114;52.314;8.910;2024-03-22T02:52:52;80.55;;;40.83;;
30307;SDS011;17114;52.314;8.910;2024-03-22T02:55:17;78.85;;;41.63;;
30307;SDS011;17114;52.314;8.910;2024-03-22T02:57:43;80.53;;;41.15;;
30307;SDS011;17114;52.314;8.910;2024-03-22T03:00:09;80.05;;;40.95;;
30307;SDS011;17114;52.314;8.910;2024-03-22T03:02:36;84.18;;;42.05;;
30307;SDS011;17114;52.314;8.910;2024-03-22T03:05:02;80.60;;;42.33;;
30307;SDS011;17114;52.314;8.910;2024-03-22T03:07:29;80.03;;;40.03;;
30307;SDS011;17114;52.314;8.910;2024-03-22T03:09:55;80.28;;;41.28;;
30307;SDS011;17114;52.314;8.910;2024-03-22T03:12:21;84.47;;;41.38;;
30307;SDS011;17114;52.314;8.910;2024-03-22T03:14:46;80.60;;;40.88;;
30307;SDS011;17114;52.314;8.910;2024-03-22T03:17:12;80.90;;;40.40;;
30307;SDS011;17114;52.314;8.910;2024-03-22T03:19:38;85.20;;;42.67;;
30307;SDS011;17114;52.314;8.910;2024-03-22T03:22:04;85.75;;;40.65;;
30307;SDS011;17114;52.314;8.910;2024-03-22T03:24:30;81.18;;;41.13;;
30307;SDS011;17114;52.314;8.910;2024-03-22T03:26:57;90.10;;;42.83;;
30307;SDS011;17114;52.314;8.910;2024-03-22T03:29:23;77.28;;;39.42;;
30307;SDS011;17114;52.314;8.910;2024-03-22T03:31:49;92.78;;;41.90;;
30307;SDS011;17114;52.314;8.910;2024-03-22T03:34:15;85.15;;;41.10;;
30307;SDS011;17114;52.314;8.910;2024-03-22T03:36:41;85.75;;;39.40;;
30307;SDS011;17114;52.314;8.910;2024-03-22T03:39:07;85.68;;;41.95;;
30307;SDS011;17114;52.314;8.910;2024-03-22T03:41:33;85.00;;;40.70;;
30307;SDS011;17114;52.314;8.910;2024-03-22T03:43:59;77.22;;;40.17;;
30307;SDS011;17114;52.314;8.910;2024-03-22T03:46:25;79.15;;;40.35;;
30307;SDS011;17114;52.314;8.910;2024-03-22T03:48:51;79.20;;;40.78;;
30307;SDS011;17114;52.314;8.910;2024-03-22T03:51:17;85.18;;;41.35;;
30307;SDS011;17114;52.314;8.910;2024-03-22T03:53:43;93.15;;;42.60;;
30307;SDS011;17114;52.314;8.910;2024-03-22T03:56:09;93.20;;;41.35;;
30307;SDS011;17114;52.314;8.910;2024-03-22T03:58:34;82.55;;;40.53;;
30307;SDS011;17114;52.314;8.910;2024-03-22T04:01:05;86.78;;;42.83;;
30307;SDS011;17114;52.314;8.910;2024-03-22T04:03:32;84.75;;;42.00;;
30307;SDS011;17114;52.314;8.910;2024-03-22T04:05:58;83.85;;;40.53;;
30307;SDS011;17114;52.314;8.910;2024-03-22T04:08:27;82.25;;;41.17;;
30307;SDS011;17114;52.314;8.910;2024-03-22T04:10:53;90.80;;;42.63;;
30307;SDS011;17114;52.314;8.910;2024-03-22T04:13:26;86.07;;;41.42;;
30307;SDS011;17114;52.314;8.910;2024-03-22T04:15:53;80.90;;;40.67;;
30307;SDS011;17114;52.314;8.910;2024-03-22T04:18:19;84.22;;;41.75;;
30307;SDS011;17114;52.314;8.910;2024-03-22T04:20:55;87.15;;;41.28;;
30307;SDS011;17114;52.314;8.910;2024-03-22T04:23:22;84.78;;;40.88;;
30307;SDS011;17114;52.314;8.910;2024-03-22T04:25:55;90.82;;;40.67;;
30307;SDS011;17114;52.314;8.910;2024-03-22T04:28:22;87.80;;;42.37;;
30307;SDS011;17114;52.314;8.910;2024-03-22T04:31:02;86.93;;;40.05;;
30307;SDS011;17114;52.314;8.910;2024-03-22T04:33:30;86.78;;;41.58;;
30307;SDS011;17114;52.314;8.910;2024-03-22T04:35:57;89.15;;;41.42;;
30307;SDS011;17114;52.314;8.910;2024-03-22T04:38:25;88.68;;;42.40;;
30307;SDS011;17114;52.314;8.910;2024-03-22T04:40:51;86.13;;;40.65;;
30307;SDS011;17114;52.314;8.910;2024-03-22T04:43:18;85.13;;;39.60;;
30307;SDS011;17114;52.314;8.910;2024-03-22T04:45:44;86.55;;;40.50;;
30307;SDS011;17114;52.314;8.910;2024-03-22T04:48:15;90.03;;;39.45;;
30307;SDS011;17114;52.314;8.910;2024-03-22T04:50:42;87.03;;;40.28;;
30307;SDS011;17114;52.314;8.910;2024-03-22T04:53:09;83.57;;;38.85;;
30307;SDS011;17114;52.314;8.910;2024-03-22T04:55:36;85.10;;;38.15;;
30307;SDS011;17114;52.314;8.910;2024-03-22T04:58:03;84.28;;;38.22;;
30307;SDS011;17114;52.314;8.910;2024-03-22T05:00:29;83.15;;;39.28;;
30307;SDS011;17114;52.314;8.910;2024-03-22T05:02:54;83.20;;;38.95;;
30307;SDS011;17114;52.314;8.910;2024-03-22T05:05:20;81.03;;;38.10;;
30307;SDS011;17114;52.314;8.910;2024-03-22T05:07:47;80.90;;;38.20;;
30307;SDS011;17114;52.314;8.910;2024-03-22T05:10:13;76.90;;;36.92;;
30307;SDS011;17114;52.314;8.910;2024-03-22T05:12:42;78.05;;;36.33;;
30307;SDS011;17114;52.314;8.910;2024-03-22T05:15:08;78.32;;;36.85;;
30307;SDS011;17114;52.314;8.910;2024-03-22T05:17:34;83.38;;;38.15;;
30307;SDS011;17114;52.314;8.910;2024-03-22T05:20:00;75.95;;;37.10;;
30307;SDS011;17114;52.314;8.910;2024-03-22T05:22:27;75.47;;;35.33;;
30307;SDS011;17114;52.314;8.910;2024-03-22T05:24:53;70.57;;;35.03;;
30307;SDS011;17114;52.314;8.910;2024-03-22T05:27:19;69.10;;;33.67;;
30307;SDS011;17114;52.314;8.910;2024-03-22T05:29:45;74.25;;;34.13;;
30307;SDS011;17114;52.314;8.910;2024-03-22T05:32:11;75.68;;;36.03;;
30307;SDS011;17114;52.314;8.910;2024-03-22T05:34:37;70.43;;;34.10;;
30307;SDS011;17114;52.314;8.910;2024-03-22T05:37:03;71.35;;;33.97;;
30307;SDS011;17114;52.314;8.910;2024-03-22T05:39:29;71.20;;;33.55;;
30307;SDS011;17114;52.314;8.910;2024-03-22T05:41:55;76.78;;;34.92;;
30307;SDS011;17114;52.314;8.910;2024-03-22T05:44:21;71.13;;;34.63;;
30307;SDS011;17114;52.314;8.910;2024-03-22T05:46:47;67.97;;;33.55;;
30307;SDS011;17114;52.314;8.910;2024-03-22T05:49:13;69.65;;;35.10;;
30307;SDS011;17114;52.314;8.910;2024-03-22T05:51:39;73.22;;;33.55;;
30307;SDS011;17114;52.314;8.910;2024-03-22T05:54:05;67.93;;;33.53;;
30307;SDS011;17114;52.314;8.910;2024-03-22T05:56:31;72.45;;;34.00;;
30307;SDS011;17114;52.314;8.910;2024-03-22T05:58:57;69.63;;;33.17;;
30307;SDS011;17114;52.314;8.910;2024-03-22T06:01:23;69.13;;;31.85;;
30307;SDS011;17114;52.314;8.910;2024-03-22T06:03:49;77.28;;;33.70;;
30307;SDS011;17114;52.314;8.910;2024-03-22T06:06:15;65.82;;;32.45;;
30307;SDS011;17114;52.314;8.910;2024-03-22T06:08:41;67.45;;;32.50;;
30307;SDS011;17114;52.314;8.910;2024-03-22T06:11:10;68.40;;;33.92;;
30307;SDS011;17114;52.314;8.910;2024-03-22T06:13:36;69.03;;;33.20;;
30307;SDS011;17114;52.314;8.910;2024-03-22T06:16:02;67.35;;;32.65;;
30307;SDS011;17114;52.314;8.910;2024-03-22T06:18:29;68.70;;;32.58;;
30307;SDS011;17114;52.314;8.910;2024-03-22T06:20:55;66.10;;;31.95;;
30307;SDS011;17114;52.314;8.910;2024-03-22T06:23:21;64.40;;;31.13;;
30307;SDS011;17114;52.314;8.910;2024-03-22T06:25:51;68.65;;;32.10;;
30307;SDS011;17114;52.314;8.910;2024-03-22T06:28:18;65.65;;;30.52;;
30307;SDS011;17114;52.314;8.910;2024-03-22T06:30:43;65.35;;;31.45;;
30307;SDS011;17114;52.314;8.910;2024-03-22T06:33:10;68.90;;;31.38;;
30307;SDS011;17114;52.314;8.910;2024-03-22T06:35:37;63.17;;;31.13;;
30307;SDS011;17114;52.314;8.910;2024-03-22T06:38:03;65.35;;;31.65;;
30307;SDS011;17114;52.314;8.910;2024-03-22T06:40:29;62.85;;;30.33;;
30307;SDS011;17114;52.314;8.910;2024-03-22T06:42:56;63.03;;;30.27;;
30307;SDS011;17114;52.314;8.910;2024-03-22T06:45:22;64.10;;;29.38;;
30307;SDS011;17114;52.314;8.910;2024-03-22T06:47:48;65.45;;;31.10;;
30307;SDS011;17114;52.314;8.910;2024-03-22T06:50:14;62.42;;;31.55;;
30307;SDS011;17114;52.314;8.910;2024-03-22T06:52:42;62.55;;;30.50;;
30307;SDS011;17114;52.314;8.910;2024-03-22T06:55:09;69.75;;;30.67;;
30307;SDS011;17114;52.314;8.910;2024-03-22T07:00:14;57.92;;;29.88;;
30307;SDS011;17114;52.314;8.910;2024-03-22T07:02:41;62.08;;;30.80;;
30307;SDS011;17114;52.314;8.910;2024-03-22T07:05:08;62.17;;;31.02;;
30307;SDS011;17114;52.314;8.910;2024-03-22T07:07:35;60.25;;;29.52;;
30307;SDS011;17114;52.314;8.910;2024-03-22T07:10:01;57.03;;;28.02;;
30307;SDS011;17114;52.314;8.910;2024-03-22T07:12:28;57.22;;;28.70;;
30307;SDS011;17114;52.314;8.910;2024-03-22T07:14:55;58.42;;;29.77;;
30307;SDS011;17114;52.314;8.910;2024-03-22T07:17:22;60.33;;;29.70;;
30307;SDS011;17114;52.314;8.910;2024-03-22T07:19:52;56.88;;;29.20;;
30307;SDS011;17114;52.314;8.910;2024-03-22T07:22:19;55.92;;;28.85;;
30307;SDS011;17114;52.314;8.910;2024-03-22T07:24:46;67.13;;;30.45;;
30307;SDS011;17114;52.314;8.910;2024-03-22T07:27:13;58.65;;;29.25;;
30307;SDS011;17114;52.314;8.910;2024-03-22T07:29:40;58.20;;;28.15;;
30307;SDS011;17114;52.314;8.910;2024-03-22T07:32:06;55.33;;;29.20;;
30307;SDS011;17114;52.314;8.910;2024-03-22T07:34:33;56.58;;;28.67;;
30307;SDS011;17114;52.314;8.910;2024-03-22T07:36:59;62.75;;;28.70;;
30307;SDS011;17114;52.314;8.910;2024-03-22T07:39:25;55.78;;;28.58;;
30307;SDS011;17114;52.314;8.910;2024-03-22T07:41:51;59.08;;;29.83;;
30307;SDS011;17114;52.314;8.910;2024-03-22T07:44:17;59.28;;;29.83;;
30307;SDS011;17114;52.314;8.910;2024-03-22T07:46:45;61.08;;;28.92;;
30307;SDS011;17114;52.314;8.910;2024-03-22T07:49:12;58.90;;;30.20;;
30307;SDS011;17114;52.314;8.910;2024-03-22T07:51:38;57.10;;;29.38;;
30307;SDS011;17114;52.314;8.910;2024-03-22T07:54:04;53.88;;;29.33;;
30307;SDS011;17114;52.314;8.910;2024-03-22T07:56:30;58.70;;;28.63;;
30307;SDS011;17114;52.314;8.910;2024-03-22T07:58:56;60.03;;;30.95;;
30307;SDS011;17114;52.314;8.910;2024-03-22T08:01:22;58.45;;;30.52;;
30307;SDS011;17114;52.314;8.910;2024-03-22T08:03:49;60.97;;;30.58;;
30307;SDS011;17114;52.314;8.910;2024-03-22T08:06:16;66.53;;;31.50;;
30307;SDS011;17114;52.314;8.910;2024-03-22T08:08:42;58.08;;;31.55;;
30307;SDS011;17114;52.314;8.910;2024-03-22T08:11:08;58.15;;;31.23;;
30307;SDS011;17114;52.314;8.910;2024-03-22T08:13:34;63.47;;;32.88;;
30307;SDS011;17114;52.314;8.910;2024-03-22T08:16:00;54.33;;;31.25;;
30307;SDS011;17114;52.314;8.910;2024-03-22T08:18:26;57.70;;;31.38;;
30307;SDS011;17114;52.314;8.910;2024-03-22T08:20:52;58.53;;;32.63;;
30307;SDS011;17114;52.314;8.910;2024-03-22T08:23:18;59.63;;;32.95;;
30307;SDS011;17114;52.314;8.910;2024-03-22T08:25:46;59.10;;;31.45;;
30307;SDS011;17114;52.314;8.910;2024-03-22T08:28:12;58.28;;;33.65;;
30307;SDS011;17114;52.314;8.910;2024-03-22T08:30:41;57.67;;;33.10;;
30307;SDS011;17114;52.314;8.910;2024-03-22T08:33:08;59.72;;;32.95;;
30307;SDS011;17114;52.314;8.910;2024-03-22T08:35:37;57.58;;;33.33;;
30307;SDS011;17114;52.314;8.910;2024-03-22T08:38:04;56.67;;;33.15;;
30307;SDS011;17114;52.314;8.910;2024-03-22T08:40:38;60.33;;;32.47;;
30307;SDS011;17114;52.314;8.910;2024-03-22T08:43:05;56.15;;;31.85;;
30307;SDS011;17114;52.314;8.910;2024-03-22T08:45:34;51.72;;;31.05;;
30307;SDS011;17114;52.314;8.910;2024-03-22T08:48:00;52.30;;;31.75;;
30307;SDS011;17114;52.314;8.910;2024-03-22T08:50:27;58.90;;;32.92;;
30307;SDS011;17114;52.314;8.910;2024-03-22T08:52:53;62.67;;;32.42;;
30307;SDS011;17114;52.314;8.910;2024-03-22T08:55:20;58.20;;;32.90;;
30307;SDS011;17114;52.314;8.910;2024-03-22T08:57:46;55.55;;;33.15;;
30307;SDS011;17114;52.314;8.910;2024-03-22T09:00:12;59.97;;;33.92;;
30307;SDS011;17114;52.314;8.910;2024-03-22T09:02:38;54.78;;;32.83;;
30307;SDS011;17114;52.314;8.910;2024-03-22T09:05:05;55.50;;;33.67;;
30307;SDS011;17114;52.314;8.910;2024-03-22T09:07:31;56.92;;;33.42;;
30307;SDS011;17114;52.314;8.910;2024-03-22T09:09:57;55.47;;;33.25;;
30307;SDS011;17114;52.314;8.910;2024-03-22T09:12:23;55.92;;;33.47;;
30307;SDS011;17114;52.314;8.910;2024-03-22T09:14:49;56.33;;;32.88;;
30307;SDS011;17114;52.314;8.910;2024-03-22T09:17:15;56.25;;;33.90;;
30307;SDS011;17114;52.314;8.910;2024-03-22T09:19:41;55.15;;;33.67;;
30307;SDS011;17114;52.314;8.910;2024-03-22T09:22:07;55.45;;;33.20;;
30307;SDS011;17114;52.314;8.910;2024-03-22T09:24:33;54.72;;;33.38;;
30307;SDS011;17114;52.314;8.910;2024-03-22T09:26:59;61.42;;;35.65;;
30307;SDS011;17114;52.314;8.910;2024-03-22T09:29:25;61.67;;;34.33;;
30307;SDS011;17114;52.314;8.910;2024-03-22T09:31:51;57.30;;;35.50;;
30307;SDS011;17114;52.314;8.910;2024-03-22T09:34:17;55.00;;;33.05;;
30307;SDS011;17114;52.314;8.910;2024-03-22T09:36:43;53.47;;;33.63;;
30307;SDS011;17114;52.314;8.910;2024-03-22T09:39:09;53.80;;;32.38;;
30307;SDS011;17114;52.314;8.910;2024-03-22T09:41:37;52.40;;;33.13;;
30307;SDS011;17114;52.314;8.910;2024-03-22T09:44:08;52.97;;;32.25;;
30307;SDS011;17114;52.314;8.910;2024-03-22T09:46:39;50.42;;;31.08;;
30307;SDS011;17114;52.314;8.910;2024-03-22T09:49:09;50.90;;;31.45;;
30307;SDS011;17114;52.314;8.910;2024-03-22T09:51:36;53.13;;;31.38;;
30307;SDS011;17114;52.314;8.910;2024-03-22T09:54:03;54.38;;;31.25;;
30307;SDS011;17114;52.314;8.910;2024-03-22T09:56:30;48.72;;;30.08;;
30307;SDS011;17114;52.314;8.910;2024-03-22T09:58:57;49.38;;;30.58;;
30307;SDS011;17114;52.314;8.910;2024-03-22T10:01:24;50.08;;;31.35;;
30307;SDS011;17114;52.314;8.910;2024-03-22T10:03:51;46.95;;;31.27;;
30307;SDS011;17114;52.314;8.910;2024-03-22T10:06:18;52.67;;;32.35;;
30307;SDS011;17114;52.314;8.910;2024-03-22T10:08:45;54.28;;;33.53;;
30307;SDS011;17114;52.314;8.910;2024-03-22T10:11:12;52.35;;;32.80;;
30307;SDS011;17114;52.314;8.910;2024-03-22T10:13:38;52.47;;;31.67;;
30307;SDS011;17114;52.314;8.910;2024-03-22T10:16:04;51.15;;;30.98;;
30307;SDS011;17114;52.314;8.910;2024-03-22T10:18:32;48.55;;;30.10;;
30307;SDS011;17114;52.314;8.910;2024-03-22T10:21:02;46.90;;;28.02;;
30307;SDS011;17114;52.314;8.910;2024-03-22T10:23:31;48.40;;;29.77;;
30307;SDS011;17114;52.314;8.910;2024-03-22T10:25:58;43.53;;;27.40;;
30307;SDS011;17114;52.314;8.910;2024-03-22T10:28:28;47.55;;;27.70;;
30307;SDS011;17114;52.314;8.910;2024-03-22T10:30:54;42.50;;;25.73;;
30307;SDS011;17114;52.314;8.910;2024-03-22T10:33:20;39.05;;;25.45;;
30307;SDS011;17114;52.314;8.910;2024-03-22T10:35:54;45.53;;;26.38;;
30307;SDS011;17114;52.314;8.910;2024-03-22T10:38:20;43.40;;;24.25;;
30307;SDS011;17114;52.314;8.910;2024-03-22T10:40:47;39.78;;;24.50;;
30307;SDS011;17114;52.314;8.910;2024-03-22T10:43:16;36.33;;;22.83;;
30307;SDS011;17114;52.314;8.910;2024-03-22T10:45:43;41.42;;;24.77;;
30307;SDS011;17114;52.314;8.910;2024-03-22T10:48:14;41.38;;;23.90;;
30307;SDS011;17114;52.314;8.910;2024-03-22T10:50:43;40.20;;;24.50;;
30307;SDS011;17114;52.314;8.910;2024-03-22T10:53:14;38.50;;;22.27;;
30307;SDS011;17114;52.314;8.910;2024-03-22T10:55:45;44.70;;;24.77;;
30307;SDS011;17114;52.314;8.910;2024-03-22T10:58:23;41.33;;;23.88;;
30307;SDS011;17114;52.314;8.910;2024-03-22T11:00:53;39.90;;;23.52;;
30307;SDS011;17114;52.314;8.910;2024-03-22T11:03:24;36.28;;;22.13;;
30307;SDS011;17114;52.314;8.910;2024-03-22T11:05:55;40.53;;;23.88;;
30307;SDS011;17114;52.314;8.910;2024-03-22T11:08:26;36.65;;;21.02;;
30307;SDS011;17114;52.314;8.910;2024-03-22T11:10:53;39.78;;;21.90;;
30307;SDS011;17114;52.314;8.910;2024-03-22T11:13:20;39.28;;;23.27;;
30307;SDS011;17114;52.314;8.910;2024-03-22T11:15:49;40.10;;;22.38;;
30307;SDS011;17114;52.314;8.910;2024-03-22T11:18:17;39.53;;;22.70;;
30307;SDS011;17114;52.314;8.910;2024-03-22T11:20:43;37.88;;;23.30;;
30307;SDS011;17114;52.314;8.910;2024-03-22T11:23:12;39.15;;;23.65;;
30307;SDS011;17114;52.314;8.910;2024-03-22T11:25:39;43.38;;;24.05;;
30307;SDS011;17114;52.314;8.910;2024-03-22T11:28:05;40.38;;;23.60;;
30307;SDS011;17114;52.314;8.910;2024-03-22T11:30:32;38.53;;;23.38;;
30307;SDS011;17114;52.314;8.910;2024-03-22T11:33:02;35.85;;;22.90;;
30307;SDS011;17114;52.314;8.910;2024-03-22T11:35:28;37.28;;;22.25;;
30307;SDS011;17114;52.314;8.910;2024-03-22T11:37:54;36.85;;;22.52;;
30307;SDS011;17114;52.314;8.910;2024-03-22T11:40:21;35.25;;;22.55;;
30307;SDS011;17114;52.314;8.910;2024-03-22T11:42:49;36.50;;;22.33;;
30307;SDS011;17114;52.314;8.910;2024-03-22T11:45:17;36.88;;;22.17;;
30307;SDS011;17114;52.314;8.910;2024-03-22T11:47:44;34.67;;;22.63;;
30307;SDS011;17114;52.314;8.910;2024-03-22T11:50:14;35.45;;;22.23;;
30307;SDS011;17114;52.314;8.910;2024-03-22T11:52:41;37.58;;;23.30;;
30307;SDS011;17114;52.314;8.910;2024-03-22T11:55:08;36.90;;;23.67;;
30307;SDS011;17114;52.314;8.910;2024-03-22T11:57:35;41.10;;;23.77;;
30307;SDS011;17114;52.314;8.910;2024-03-22T12:00:03;37.80;;;22.70;;
30307;SDS011;17114;52.314;8.910;2024-03-22T12:02:40;33.70;;;21.90;;
30307;SDS011;17114;52.314;8.910;2024-03-22T12:05:07;43.85;;;25.00;;
30307;SDS011;17114;52.314;8.910;2024-03-22T12:07:34;38.00;;;22.35;;
30307;SDS011;17114;52.314;8.910;2024-03-22T12:10:00;38.22;;;23.15;;
30307;SDS011;17114;52.314;8.910;2024-03-22T12:12:27;39.63;;;22.95;;
30307;SDS011;17114;52.314;8.910;2024-03-22T12:14:53;35.50;;;22.65;;
30307;SDS011;17114;52.314;8.910;2024-03-22T12:17:19;38.00;;;22.15;;
30307;SDS011;17114;52.314;8.910;2024-03-22T12:19:45;35.80;;;22.33;;
30307;SDS011;17114;52.314;8.910;2024-03-22T12:22:12;35.67;;;22.17;;
30307;SDS011;17114;52.314;8.910;2024-03-22T12:24:39;35.92;;;22.35;;
30307;SDS011;17114;52.314;8.910;2024-03-22T12:27:05;32.20;;;22.30;;
30307;SDS011;17114;52.314;8.910;2024-03-22T12:29:34;34.35;;;22.02;;
30307;SDS011;17114;52.314;8.910;2024-03-22T12:32:01;33.10;;;20.80;;
30307;SDS011;17114;52.314;8.910;2024-03-22T12:34:29;33.15;;;19.85;;
30307;SDS011;17114;52.314;8.910;2024-03-22T12:36:56;31.42;;;19.98;;
30307;SDS011;17114;52.314;8.910;2024-03-22T12:39:22;34.38;;;21.13;;
30307;SDS011;17114;52.314;8.910;2024-03-22T12:41:48;33.00;;;20.50;;
30307;SDS011;17114;52.314;8.910;2024-03-22T12:44:14;34.80;;;20.30;;
30307;SDS011;17114;52.314;8.910;2024-03-22T12:46:40;33.47;;;21.02;;
30307;SDS011;17114;52.314;8.910;2024-03-22T12:49:10;32.83;;;20.13;;
30307;SDS011;17114;52.314;8.910;2024-03-22T12:51:36;39.50;;;20.70;;
30307;SDS011;17114;52.314;8.910;2024-03-22T12:54:03;32.75;;;19.88;;
30307;SDS011;17114;52.314;8.910;2024-03-22T12:56:32;31.45;;;20.92;;
30307;SDS011;17114;52.314;8.910;2024-03-22T12:58:59;30.83;;;19.58;;
30307;SDS011;17114;52.314;8.910;2024-03-22T13:01:25;33.97;;;20.25;;
30307;SDS011;17114;52.314;8.910;2024-03-22T13:03:51;33.55;;;21.15;;
30307;SDS011;17114;52.314;8.910;2024-03-22T13:06:17;38.40;;;22.02;;
30307;SDS011;17114;52.314;8.910;2024-03-22T13:08:43;32.60;;;20.88;;
30307;SDS011;17114;52.314;8.910;2024-03-22T13:11:09;35.65;;;22.13;;
30307;SDS011;17114;52.314;8.910;2024-03-22T13:13:36;39.92;;;22.88;;
30307;SDS011;17114;52.314;8.910;2024-03-22T13:16:03;36.40;;;22.95;;
30307;SDS011;17114;52.314;8.910;2024-03-22T13:18:30;35.75;;;22.58;;
30307;SDS011;17114;52.314;8.910;2024-03-22T13:20:56;39.00;;;23.63;;
30307;SDS011;17114;52.314;8.910;2024-03-22T13:23:22;38.55;;;24.02;;
30307;SDS011;17114;52.314;8.910;2024-03-22T13:25:48;39.65;;;22.63;;
30307;SDS011;17114;52.314;8.910;2024-03-22T13:28:14;36.00;;;21.40;;
30307;SDS011;17114;52.314;8.910;2024-03-22T13:30:45;36.00;;;20.98;;
30307;SDS011;17114;52.314;8.910;2024-03-22T13:33:12;34.15;;;19.98;;
30307;SDS011;17114;52.314;8.910;2024-03-22T13:35:38;31.90;;;20.17;;
30307;SDS011;17114;52.314;8.910;2024-03-22T13:38:06;33.85;;;21.67;;
30307;SDS011;17114;52.314;8.910;2024-03-22T13:40:38;34.53;;;20.02;;
30307;SDS011;17114;52.314;8.910;2024-03-22T13:43:09;29.95;;;19.35;;
30307;SDS011;17114;52.314;8.910;2024-03-22T13:45:41;31.65;;;20.40;;
30307;SDS011;17114;52.314;8.910;2024-03-22T13:48:10;33.30;;;19.90;;
30307;SDS011;17114;52.314;8.910;2024-03-22T13:50:37;31.13;;;19.10;;
30307;SDS011;17114;52.314;8.910;2024-03-22T13:53:03;30.70;;;19.15;;
30307;SDS011;17114;52.314;8.910;2024-03-22T13:55:30;29.92;;;19.15;;
30307;SDS011;17114;52.314;8.910;2024-03-22T13:57:57;33.92;;;20.35;;
30307;SDS011;17114;52.314;8.910;2024-03-22T14:00:23;29.10;;;18.23;;
30307;SDS011;17114;52.314;8.910;2024-03-22T14:02:51;31.35;;;18.40;;
30307;SDS011;17114;52.314;8.910;2024-03-22T14:05:21;28.30;;;18.10;;
30307;SDS011;17114;52.314;8.910;2024-03-22T14:07:50;29.70;;;19.05;;
30307;SDS011;17114;52.314;8.910;2024-03-22T14:10:16;32.53;;;18.90;;
30307;SDS011;17114;52.314;8.910;2024-03-22T14:12:45;30.85;;;18.50;;
30307;SDS011;17114;52.314;8.910;2024-03-22T14:15:12;31.13;;;18.85;;
30307;SDS011;17114;52.314;8.910;2024-03-22T14:17:38;33.75;;;19.80;;
30307;SDS011;17114;52.314;8.910;2024-03-22T14:20:05;32.78;;;20.02;;
30307;SDS011;17114;52.314;8.910;2024-03-22T14:22:38;38.45;;;20.45;;